createdAt,value
2019-02-12T00:02:23.228Z,99127.77
2019-02-12T00:06:25.756Z,99134.88
2019-02-12T00:10:28.097Z,99140.84
2019-02-12T00:14:30.721Z,99147.33
2019-02-12T00:18:33.201Z,99156.73
2019-02-12T00:22:37.313Z,99151.64
2019-02-12T00:26:39.681Z,99158.62
2019-02-12T00:30:42.194Z,99160.93
2019-02-12T00:34:44.656Z,99176.88
2019-02-12T00:38:47.253Z,99179.73
2019-02-12T00:42:50.759Z,99192.13
2019-02-12T00:46:53.383Z,99188.34
2019-02-12T00:50:55.796Z,99197.60
2019-02-12T00:54:58.217Z,99204.36
2019-02-12T00:59:00.717Z,99206.45
2019-02-12T01:03:03.413Z,99205.34
2019-02-12T01:07:06.526Z,99203.58
2019-02-12T01:11:09.126Z,99213.42
2019-02-12T01:15:13.312Z,99207.16
2019-02-12T01:19:15.913Z,99215.13
2019-02-12T01:23:18.585Z,99225.89
2019-02-12T01:27:21.037Z,99230.52
2019-02-12T01:31:23.425Z,99239.51
2019-02-12T01:35:26.241Z,99247.56
2019-02-12T01:39:28.714Z,99257.31
2019-02-12T01:43:31.140Z,99259.74
2019-02-12T01:47:33.510Z,99266.48
2019-02-12T01:51:36.240Z,99277.63
2019-02-12T01:55:38.613Z,99279.59
2019-02-12T01:59:41.095Z,99286.71
2019-02-12T02:03:43.454Z,99293.06
2019-02-12T02:07:45.987Z,99301.96
2019-02-12T02:11:48.409Z,99310.86
2019-02-12T02:15:50.962Z,99312.70
2019-02-12T02:19:53.340Z,99322.37
2019-02-12T02:23:56.230Z,99318.98
2019-02-12T02:27:58.614Z,99326.95
2019-02-12T02:32:01.085Z,99334.22
2019-02-12T02:36:03.737Z,99338.72
2019-02-12T02:40:07.172Z,99343.22
2019-02-12T02:44:09.559Z,99351.61
2019-02-12T02:48:15.253Z,99370.97
2019-02-12T02:52:17.785Z,99365.00
2019-02-12T02:56:20.624Z,99380.32
2019-02-12T03:00:23.182Z,99385.84
2019-02-12T03:04:25.678Z,99388.19
2019-02-12T03:08:28.040Z,99389.67
2019-02-12T03:12:30.517Z,99403.86
2019-02-12T03:16:32.893Z,99409.17
2019-02-12T03:20:35.330Z,99416.85
2019-02-12T03:24:38.036Z,99421.41
2019-02-12T03:28:40.488Z,99429.34
2019-02-12T03:32:43.134Z,99439.98
2019-02-12T03:36:45.814Z,99449.32
2019-02-12T03:40:48.168Z,99442.03
2019-02-12T03:44:50.994Z,99452.96
2019-02-12T03:48:54.761Z,99467.53
2019-02-12T03:52:57.602Z,99470.60
2019-02-12T03:57:00.453Z,99467.31
2019-02-12T04:01:03.088Z,99468.80
2019-02-12T04:05:06.141Z,99472.43
2019-02-12T04:09:09.007Z,99485.16
2019-02-12T04:13:11.416Z,99487.84
2019-02-12T04:17:13.891Z,99500.92
2019-02-12T04:21:20.880Z,99498.48
2019-02-12T04:25:23.800Z,99503.81
2019-02-12T04:29:26.153Z,99518.66
2019-02-12T04:33:28.609Z,99531.73
2019-02-12T04:37:31.190Z,99536.52
2019-02-12T04:41:35.301Z,99536.97
2019-02-12T04:45:37.830Z,99544.04
2019-02-12T04:49:40.909Z,99555.98
2019-02-12T04:53:43.581Z,99572.06
2019-02-12T04:57:46.442Z,99577.92
2019-02-12T05:01:48.837Z,99581.94
2019-02-12T05:05:51.638Z,99590.02
2019-02-12T05:09:55.777Z,99599.44
2019-02-12T05:13:58.254Z,99608.06
2019-02-12T05:18:00.600Z,99605.21
2019-02-12T05:22:03.048Z,99606.62
2019-02-12T05:26:07.920Z,99613.77
2019-02-12T05:30:11.479Z,99610.70
2019-02-12T05:34:13.879Z,99612.07
2019-02-12T05:38:16.348Z,99632.23
2019-02-12T05:42:18.892Z,99643.31
2019-02-12T05:46:21.636Z,99656.08
2019-02-12T05:50:24.135Z,99667.15
2019-02-12T05:54:26.614Z,99681.69
2019-02-12T05:58:30.090Z,99686.37
2019-02-12T06:02:32.673Z,99688.28
2019-02-12T06:06:35.020Z,99700.89
2019-02-12T06:10:38.315Z,99712.11
2019-02-12T06:14:40.801Z,99719.39
2019-02-12T06:18:43.288Z,99732.84
2019-02-12T06:22:45.786Z,99735.04
2019-02-12T06:32:19.709Z,99746.66
2019-02-12T06:36:22.499Z,99765.73
2019-02-12T06:40:24.955Z,99771.86
2019-02-12T06:44:27.457Z,99774.09
2019-02-12T06:48:29.871Z,99787.55
2019-02-12T06:52:32.361Z,99796.23
2019-02-12T06:56:34.782Z,99796.95
2019-02-12T07:00:37.310Z,99810.48
2019-02-12T07:04:39.687Z,99816.95
2019-02-12T07:09:14.254Z,99824.19
2019-02-12T07:13:26.355Z,99825.34
2019-02-12T07:18:39.785Z,99829.06
2019-02-12T07:23:10.274Z,99830.30
2019-02-12T07:28:02.318Z,99840.44
2019-02-12T07:32:44.257Z,99853.20
2019-02-12T07:37:14.729Z,99857.52
2019-02-12T07:41:43.350Z,99858.29
2019-02-12T07:46:18.641Z,99871.93
2019-02-12T07:51:00.845Z,99868.17
2019-02-12T07:55:37.659Z,99868.91
2019-02-12T08:00:04.342Z,99869.67
2019-02-12T08:04:33.058Z,99883.97
2019-02-12T08:09:20.765Z,99893.42
2019-02-12T08:13:53.299Z,99905.81
2019-02-12T08:18:31.436Z,99909.10
2019-02-12T08:23:10.343Z,99916.56
2019-02-12T08:27:28.404Z,99930.02
2019-02-12T08:32:25.442Z,99930.54
2019-02-12T08:36:44.843Z,99938.29
2019-02-12T08:41:37.997Z,99945.98
2019-02-12T08:46:29.999Z,99947.25
2019-02-12T08:51:18.456Z,99951.77
2019-02-12T08:56:04.165Z,99956.78
2019-02-12T09:00:47.540Z,99964.36
2019-02-12T09:05:19.477Z,99967.12
2019-02-12T09:10:16.502Z,99971.68
2019-02-12T09:14:24.457Z,99966.16
2019-02-12T09:18:50.588Z,99973.61
2019-02-12T09:23:37.102Z,99971.37
2019-02-12T09:28:22.087Z,99984.36
2019-02-12T09:32:52.866Z,99982.16
2019-02-12T09:37:54.424Z,99980.83
2019-02-12T09:42:28.798Z,99978.53
2019-02-12T09:47:15.652Z,99978.39
2019-02-12T09:51:51.766Z,99988.75
2019-02-12T09:56:29.966Z,99982.96
2019-02-12T10:00:53.326Z,99983.48
2019-02-12T10:05:26.845Z,99992.07
2019-02-12T10:09:47.947Z,99986.47
2019-02-12T10:14:27.810Z,99987.34
2019-02-12T10:19:10.722Z,99981.77
2019-02-12T10:23:54.123Z,99994.33
2019-02-12T10:29:01.922Z,99988.66
2019-02-12T10:33:04.356Z,100000.94
2019-02-12T10:37:07.041Z,100000.78
2019-02-12T10:41:09.402Z,100006.23
2019-02-12T10:45:12.002Z,100002.16
2019-02-12T10:49:14.748Z,100001.05
2019-02-12T10:53:17.207Z,99999.64
2019-02-12T10:57:19.708Z,100004.89
2019-02-12T11:01:22.325Z,100009.46
2019-02-12T11:05:25.942Z,100010.98
2019-02-12T11:09:29.568Z,100007.70
2019-02-12T11:13:32.000Z,100009.98
2019-02-12T11:17:34.601Z,100006.84
2019-02-12T11:21:37.020Z,100020.30
2019-02-12T11:25:39.489Z,100022.47
2019-02-12T11:29:42.208Z,100021.47
2019-02-12T11:33:44.768Z,100030.12
2019-02-12T11:37:47.163Z,100039.20
2019-02-12T11:41:49.684Z,100049.92
2019-02-12T11:45:54.576Z,100051.23
2019-02-12T11:50:00.680Z,100059.43
2019-02-12T11:54:03.174Z,100064.27
2019-02-12T11:58:05.675Z,100070.42
2019-02-12T12:02:08.130Z,100078.59
2019-02-12T12:06:12.021Z,100082.86
2019-02-12T12:10:14.610Z,100094.87
2019-02-12T12:14:20.265Z,100090.27
2019-02-12T12:18:24.998Z,100095.20
2019-02-12T12:22:30.478Z,100094.27
2019-02-12T12:26:39.563Z,100100.51
2019-02-12T12:31:10.820Z,100099.96
2019-02-12T12:35:11.634Z,100108.77
2019-02-12T12:39:17.405Z,100111.15
2019-02-12T12:43:19.786Z,100120.78
2019-02-12T12:47:27.860Z,100124.05
2019-02-12T12:51:32.150Z,100135.84
2019-02-12T12:55:34.639Z,100135.84
2019-02-12T12:59:37.082Z,100140.78
2019-02-12T13:03:40.639Z,100134.98
2019-02-12T13:07:43.030Z,100147.23
2019-02-12T13:11:45.505Z,100151.16
2019-02-12T13:15:47.910Z,100161.26
2019-02-12T13:19:50.376Z,100170.58
2019-02-12T13:23:52.830Z,100164.47
2019-02-12T13:27:55.406Z,100172.63
2019-02-12T13:31:57.816Z,100181.09
2019-02-12T13:36:00.608Z,100181.78
2019-02-12T13:40:03.467Z,100195.17
2019-02-12T13:44:06.060Z,100193.15
2019-02-12T13:48:08.471Z,100191.58
2019-02-12T13:52:11.255Z,100195.42
2019-02-12T13:56:13.671Z,100198.73
2019-02-12T14:00:16.719Z,100197.70
2019-02-12T14:04:19.207Z,100208.17
2019-02-12T14:08:22.983Z,100208.88
2019-02-12T14:12:25.380Z,100209.69
2019-02-12T14:16:27.962Z,100211.81
2019-02-12T14:20:30.340Z,100220.35
2019-02-12T14:24:32.846Z,100218.27
2019-02-12T14:28:35.201Z,100233.84
2019-02-12T14:32:37.696Z,100240.47
2019-02-12T14:36:40.227Z,100240.92
2019-02-12T14:40:43.076Z,100244.94
2019-02-12T14:44:45.539Z,100252.78
2019-02-12T14:48:48.056Z,100256.44
2019-02-12T14:52:50.455Z,100264.69
2019-02-12T14:56:52.970Z,100278.89
2019-02-12T15:00:55.370Z,100284.70
2019-02-12T15:05:00.507Z,100290.12
2019-02-12T15:09:01.938Z,100294.72
2019-02-12T15:13:07.790Z,100293.84
2019-02-12T15:17:11.365Z,100299.91
2019-02-12T15:21:13.940Z,100305.59
2019-02-12T15:25:18.725Z,100321.58
2019-02-12T15:29:25.282Z,100313.28
2019-02-12T15:33:29.441Z,100314.38
2019-02-12T15:37:31.910Z,100329.73
2019-02-12T15:41:34.590Z,100330.72
2019-02-12T15:45:37.045Z,100331.91
2019-02-12T15:49:39.421Z,100333.58
2019-02-12T15:53:42.098Z,100345.91
2019-02-12T15:57:45.934Z,100350.45
2019-02-12T16:01:50.809Z,100365.15
2019-02-12T16:05:54.653Z,100368.58
2019-02-12T16:09:58.529Z,100370.45
2019-02-12T16:14:01.186Z,100376.44
2019-02-12T16:18:03.642Z,100384.53
2019-02-12T16:22:06.141Z,100377.90
2019-02-12T16:26:08.595Z,100391.60
2019-02-12T16:30:13.755Z,100392.58
2019-02-12T16:34:16.255Z,100401.35
2019-02-12T16:38:18.615Z,100400.56
2019-02-12T16:42:21.347Z,100408.25
2019-02-12T16:46:24.456Z,100415.69
2019-02-12T16:50:26.961Z,100417.40
2019-02-12T16:54:29.386Z,100425.95
2019-02-12T16:58:31.866Z,100429.83
2019-02-12T17:02:34.259Z,100426.58
2019-02-12T17:06:36.826Z,100436.02
2019-02-12T17:10:39.276Z,100440.20
2019-02-12T17:14:41.686Z,100441.36
2019-02-12T17:18:44.075Z,100450.41
2019-02-12T17:22:46.664Z,100453.28
2019-02-12T17:26:49.053Z,100462.64
2019-02-12T17:30:51.495Z,100458.91
2019-02-12T17:35:01.186Z,100453.59
2019-02-12T17:38:59.440Z,100460.88
2019-02-12T17:43:02.288Z,100467.94
2019-02-12T17:47:04.876Z,100478.27
2019-02-12T17:51:07.292Z,100480.20
2019-02-12T17:55:11.276Z,100490.09
2019-02-12T17:59:13.732Z,100495.38
2019-02-12T18:03:16.278Z,100495.48
2019-02-12T18:07:18.643Z,100505.14
2019-02-12T18:11:21.266Z,100503.18
2019-02-12T18:15:23.652Z,100516.78
2019-02-12T18:19:26.105Z,100515.45
2019-02-12T18:23:28.582Z,100516.88
2019-02-12T18:27:31.034Z,100515.31
2019-02-12T18:31:33.471Z,100516.39
2019-02-12T18:35:36.119Z,100525.84
2019-02-12T18:39:38.506Z,100528.19
2019-02-12T18:43:41.430Z,100528.37
2019-02-12T18:47:53.871Z,100528.33
2019-02-12T18:52:01.660Z,100531.27
2019-02-12T18:56:10.162Z,100536.58
2019-02-12T19:00:15.697Z,100539.63
2019-02-12T19:04:18.178Z,100551.28
2019-02-12T19:08:20.738Z,100546.41
2019-02-12T19:12:23.287Z,100551.05
2019-02-12T19:16:25.924Z,100555.23
2019-02-12T19:20:28.296Z,100558.63
2019-02-12T19:24:30.797Z,100554.27
2019-02-12T19:28:33.133Z,100557.77
2019-02-12T19:32:35.565Z,100562.19
2019-02-12T19:36:37.909Z,100561.95
2019-02-12T19:40:41.327Z,100565.26
2019-02-12T19:44:43.719Z,100572.54
2019-02-12T19:48:54.168Z,100573.87
2019-02-12T19:52:56.666Z,100579.92
2019-02-12T19:56:59.426Z,100579.17
2019-02-12T20:01:01.978Z,100584.30
2019-02-12T20:05:04.552Z,100591.11
2019-02-12T20:09:16.446Z,100594.90
2019-02-12T20:13:18.913Z,100603.09
2019-02-12T20:17:21.284Z,100605.99
2019-02-12T20:21:23.724Z,100607.81
2019-02-12T20:25:26.313Z,100610.00
2019-02-12T20:29:28.738Z,100611.84
2019-02-12T20:33:31.266Z,100613.63
2019-02-12T20:37:33.867Z,100619.33
2019-02-12T20:41:36.486Z,100616.53
2019-02-12T20:45:39.640Z,100614.69
2019-02-12T20:49:42.159Z,100620.37
2019-02-12T20:53:44.609Z,100620.30
2019-02-12T20:57:46.950Z,100630.70
2019-02-12T21:01:49.772Z,100625.27
2019-02-12T21:05:52.190Z,100619.07
2019-02-12T21:09:54.691Z,100618.52
2019-02-12T21:13:57.292Z,100616.47
2019-02-12T21:18:01.425Z,100620.32
2019-02-12T21:22:03.832Z,100625.25
2019-02-12T21:26:07.543Z,100627.59
2019-02-12T21:30:12.707Z,100630.81
2019-02-12T21:34:15.509Z,100627.03
2019-02-12T21:38:20.656Z,100624.48
2019-02-12T21:42:23.297Z,100616.70
2019-02-12T21:46:25.765Z,100623.72
2019-02-12T21:50:28.428Z,100633.34
2019-02-12T21:54:30.789Z,100627.42
2019-02-12T21:58:33.348Z,100629.39
2019-02-12T22:02:35.721Z,100625.06
2019-02-12T22:06:38.145Z,100635.05
2019-02-12T22:10:46.277Z,100624.72
2019-02-12T22:14:44.572Z,100626.02
2019-02-12T22:18:46.950Z,100627.32
2019-02-12T22:22:49.563Z,100633.50
2019-02-12T22:26:51.917Z,100627.84
2019-02-12T22:30:54.447Z,100625.69
2019-02-12T22:34:56.755Z,100626.55
2019-02-12T22:38:59.539Z,100622.31
2019-02-12T22:43:02.230Z,100626.25
2019-02-12T22:47:05.227Z,100620.16
2019-02-12T22:51:07.564Z,100613.63
2019-02-12T22:55:10.129Z,100613.33
2019-02-12T22:59:12.502Z,100618.81
2019-02-12T23:03:16.516Z,100612.90
2019-02-12T23:07:19.337Z,100610.83
2019-02-12T23:11:21.864Z,100616.02
2019-02-12T23:15:24.238Z,100608.28
2019-02-12T23:19:26.665Z,100608.28
2019-02-12T23:23:29.020Z,100609.14
2019-02-12T23:27:31.443Z,100600.11
2019-02-12T23:31:33.800Z,100601.76
2019-02-12T23:35:36.266Z,100585.91
2019-02-12T23:39:38.636Z,100587.24
2019-02-12T23:43:41.310Z,100583.27
2019-02-12T23:47:44.128Z,100580.20
2019-02-12T23:51:46.648Z,100575.84
2019-02-12T23:55:48.974Z,100571.94
2019-02-12T23:59:51.420Z,100570.65
